sensor_id;sensor_type;location;lat;lon;timestamp;pressure;altitude;pressure_sealevel;temperature;humidity
77869;BME280;67231;59.144;37.934;2023-08-01T00:01:37;99518.25;;;14.68;81.78
77869;BME280;67231;59.144;37.934;2023-08-01T00:04:04;99526.47;;;14.67;81.48
77869;BME280;67231;59.144;37.934;2023-08-01T00:06:30;99516.81;;;14.66;81.55
77869;BME280;67231;59.144;37.934;2023-08-01T00:08:56;99518.81;;;14.64;81.79
77869;BME280;67231;59.144;37.934;2023-08-01T00:11:22;99519.41;;;14.59;81.86
77869;BME280;67231;59.144;37.934;2023-08-01T00:13:49;99521.41;;;14.57;81.57
77869;BME280;67231;59.144;37.934;2023-08-01T00:16:15;99531.28;;;14.56;81.90
77869;BME280;67231;59.144;37.934;2023-08-01T00:18:41;99531.47;;;14.55;81.56
77869;BME280;67231;59.144;37.934;2023-08-01T00:21:08;99534.31;;;14.53;81.61
77869;BME280;67231;59.144;37.934;2023-08-01T00:23:37;99533.25;;;14.48;82.06
77869;BME280;67231;59.144;37.934;2023-08-01T00:26:04;99529.09;;;14.45;81.65
77869;BME280;67231;59.144;37.934;2023-08-01T00:28:30;99530.28;;;14.43;81.88
77869;BME280;67231;59.144;37.934;2023-08-01T00:31:04;99537.66;;;14.41;81.97
77869;BME280;67231;59.144;37.934;2023-08-01T00:33:32;99544.88;;;14.40;82.00
77869;BME280;67231;59.144;37.934;2023-08-01T00:35:58;99552.41;;;14.36;81.95
77869;BME280;67231;59.144;37.934;2023-08-01T00:38:25;99553.81;;;14.32;82.03
77869;BME280;67231;59.144;37.934;2023-08-01T00:40:51;99542.50;;;14.30;81.66
77869;BME280;67231;59.144;37.934;2023-08-01T00:43:17;99549.03;;;14.28;81.88
77869;BME280;67231;59.144;37.934;2023-08-01T00:45:45;99555.38;;;14.27;82.16
77869;BME280;67231;59.144;37.934;2023-08-01T00:48:12;99551.25;;;14.24;82.38
77869;BME280;67231;59.144;37.934;2023-08-01T00:50:39;99552.25;;;14.23;81.52
77869;BME280;67231;59.144;37.934;2023-08-01T00:53:06;99555.13;;;14.21;82.08
77869;BME280;67231;59.144;37.934;2023-08-01T00:55:32;99556.16;;;14.20;82.17
77869;BME280;67231;59.144;37.934;2023-08-01T00:58:00;99549.69;;;14.15;82.32
77869;BME280;67231;59.144;37.934;2023-08-01T01:00:26;99560.13;;;14.10;82.02
77869;BME280;67231;59.144;37.934;2023-08-01T01:02:52;99557.00;;;14.06;82.32
77869;BME280;67231;59.144;37.934;2023-08-01T01:05:20;99563.16;;;14.07;82.49
77869;BME280;67231;59.144;37.934;2023-08-01T01:07:49;99567.00;;;14.04;82.36
77869;BME280;67231;59.144;37.934;2023-08-01T01:10:16;99564.34;;;14.04;81.83
77869;BME280;67231;59.144;37.934;2023-08-01T01:12:42;99568.84;;;14.03;81.85
77869;BME280;67231;59.144;37.934;2023-08-01T01:15:08;99568.50;;;14.07;82.15
77869;BME280;67231;59.144;37.934;2023-08-01T01:17:35;99568.31;;;14.08;82.02
77869;BME280;67231;59.144;37.934;2023-08-01T01:20:01;99568.69;;;14.05;82.11
77869;BME280;67231;59.144;37.934;2023-08-01T01:22:30;99568.03;;;14.03;81.92
77869;BME280;67231;59.144;37.934;2023-08-01T01:24:58;99565.94;;;13.98;81.66
77869;BME280;67231;59.144;37.934;2023-08-01T01:27:25;99566.09;;;13.97;81.90
77869;BME280;67231;59.144;37.934;2023-08-01T01:29:53;99568.97;;;13.95;81.56
77869;BME280;67231;59.144;37.934;2023-08-01T01:32:21;99576.59;;;13.98;81.39
77869;BME280;67231;59.144;37.934;2023-08-01T01:34:48;99572.72;;;14.01;81.05
77869;BME280;67231;59.144;37.934;2023-08-01T01:37:14;99568.69;;;14.05;81.31
77869;BME280;67231;59.144;37.934;2023-08-01T01:39:40;99570.97;;;14.08;80.97
77869;BME280;67231;59.144;37.934;2023-08-01T01:42:07;99565.25;;;14.11;81.28
77869;BME280;67231;59.144;37.934;2023-08-01T01:44:33;99564.22;;;14.12;81.30
77869;BME280;67231;59.144;37.934;2023-08-01T01:47:00;99570.22;;;14.14;81.16
77869;BME280;67231;59.144;37.934;2023-08-01T01:49:26;99573.53;;;14.16;80.89
77869;BME280;67231;59.144;37.934;2023-08-01T01:51:53;99563.03;;;14.15;81.18
77869;BME280;67231;59.144;37.934;2023-08-01T01:54:19;99574.16;;;14.18;81.19
77869;BME280;67231;59.144;37.934;2023-08-01T01:56:46;99568.47;;;14.21;80.53
77869;BME280;67231;59.144;37.934;2023-08-01T01:59:12;99568.09;;;14.25;80.59
77869;BME280;67231;59.144;37.934;2023-08-01T02:01:38;99572.03;;;14.29;80.47
77869;BME280;67231;59.144;37.934;2023-08-01T02:04:05;99570.63;;;14.33;80.47
77869;BME280;67231;59.144;37.934;2023-08-01T02:06:31;99568.22;;;14.38;80.15
77869;BME280;67231;59.144;37.934;2023-08-01T02:08:58;99578.81;;;14.46;80.23
77869;BME280;67231;59.144;37.934;2023-08-01T02:11:28;99568.66;;;14.56;79.80
77869;BME280;67231;59.144;37.934;2023-08-01T02:13:55;99569.97;;;14.82;78.91
77869;BME280;67231;59.144;37.934;2023-08-01T02:16:21;99579.63;;;15.90;76.34
77869;BME280;67231;59.144;37.934;2023-08-01T02:18:48;99565.56;;;17.18;72.62
77869;BME280;67231;59.144;37.934;2023-08-01T02:21:14;99574.44;;;18.17;69.96
77869;BME280;67231;59.144;37.934;2023-08-01T02:23:40;99576.34;;;18.93;67.54
77869;BME280;67231;59.144;37.934;2023-08-01T02:26:07;99581.72;;;19.44;65.83
77869;BME280;67231;59.144;37.934;2023-08-01T02:28:34;99590.59;;;19.70;65.05
77869;BME280;67231;59.144;37.934;2023-08-01T02:31:00;99590.13;;;19.54;64.87
77869;BME280;67231;59.144;37.934;2023-08-01T02:33:27;99587.56;;;18.45;67.92
77869;BME280;67231;59.144;37.934;2023-08-01T02:35:53;99591.28;;;17.65;70.26
77869;BME280;67231;59.144;37.934;2023-08-01T02:38:19;99596.28;;;17.08;72.04
77869;BME280;67231;59.144;37.934;2023-08-01T02:40:46;99596.41;;;16.73;73.22
77869;BME280;67231;59.144;37.934;2023-08-01T02:43:12;99593.91;;;16.52;73.52
77869;BME280;67231;59.144;37.934;2023-08-01T02:45:39;99586.44;;;16.41;74.55
77869;BME280;67231;59.144;37.934;2023-08-01T02:48:07;99588.66;;;16.30;74.97
77869;BME280;67231;59.144;37.934;2023-08-01T02:50:33;99589.84;;;16.21;75.27
77869;BME280;67231;59.144;37.934;2023-08-01T02:53:00;99592.09;;;16.17;75.75
77869;BME280;67231;59.144;37.934;2023-08-01T02:55:26;99597.88;;;16.21;75.18
77869;BME280;67231;59.144;37.934;2023-08-01T02:57:52;99588.63;;;16.24;75.58
77869;BME280;67231;59.144;37.934;2023-08-01T03:00:18;99588.44;;;16.25;75.63
77869;BME280;67231;59.144;37.934;2023-08-01T03:02:45;99593.38;;;16.28;75.65
77869;BME280;67231;59.144;37.934;2023-08-01T03:05:11;99595.88;;;16.30;75.52
77869;BME280;67231;59.144;37.934;2023-08-01T03:07:38;99597.09;;;16.34;75.82
77869;BME280;67231;59.144;37.934;2023-08-01T03:10:04;99595.91;;;16.43;75.72
77869;BME280;67231;59.144;37.934;2023-08-01T03:12:32;99592.22;;;16.51;75.54
77869;BME280;67231;59.144;37.934;2023-08-01T03:14:59;99593.09;;;16.58;75.27
77869;BME280;67231;59.144;37.934;2023-08-01T03:17:25;99593.09;;;16.65;75.23
77869;BME280;67231;59.144;37.934;2023-08-01T03:19:51;99590.66;;;16.77;75.02
77869;BME280;67231;59.144;37.934;2023-08-01T03:22:18;99594.81;;;16.92;74.80
77869;BME280;67231;59.144;37.934;2023-08-01T03:24:44;99589.25;;;17.01;74.66
77869;BME280;67231;59.144;37.934;2023-08-01T03:27:10;99597.72;;;16.98;74.79
77869;BME280;67231;59.144;37.934;2023-08-01T03:29:37;99603.06;;;17.04;74.54
77869;BME280;67231;59.144;37.934;2023-08-01T03:32:03;99599.16;;;17.14;74.38
77869;BME280;67231;59.144;37.934;2023-08-01T03:34:30;99599.81;;;17.29;74.27
77869;BME280;67231;59.144;37.934;2023-08-01T03:36:58;99606.81;;;17.43;73.84
77869;BME280;67231;59.144;37.934;2023-08-01T03:39:24;99604.72;;;17.52;73.95
77869;BME280;67231;59.144;37.934;2023-08-01T03:41:50;99604.50;;;17.67;73.79
77869;BME280;67231;59.144;37.934;2023-08-01T03:44:17;99608.19;;;17.79;73.56
77869;BME280;67231;59.144;37.934;2023-08-01T03:46:43;99610.28;;;17.91;73.61
77869;BME280;67231;59.144;37.934;2023-08-01T03:49:09;99616.44;;;18.05;73.37
77869;BME280;67231;59.144;37.934;2023-08-01T03:51:36;99608.13;;;18.19;72.91
77869;BME280;67231;59.144;37.934;2023-08-01T03:54:02;99625.44;;;18.30;73.08
77869;BME280;67231;59.144;37.934;2023-08-01T03:56:29;99611.13;;;18.43;72.81
77869;BME280;67231;59.144;37.934;2023-08-01T03:58:55;99612.75;;;18.51;72.40
77869;BME280;67231;59.144;37.934;2023-08-01T04:01:21;99606.50;;;18.57;72.74
77869;BME280;67231;59.144;37.934;2023-08-01T04:03:47;99612.63;;;18.71;72.48
77869;BME280;67231;59.144;37.934;2023-08-01T04:06:14;99609.25;;;18.82;72.22
77869;BME280;67231;59.144;37.934;2023-08-01T04:08:41;99619.94;;;18.96;71.78
77869;BME280;67231;59.144;37.934;2023-08-01T04:11:07;99625.25;;;19.09;71.63
77869;BME280;67231;59.144;37.934;2023-08-01T04:13:34;99616.47;;;19.20;71.44
77869;BME280;67231;59.144;37.934;2023-08-01T04:16:00;99625.31;;;19.27;71.22
77869;BME280;67231;59.144;37.934;2023-08-01T04:18:26;99624.00;;;19.37;71.06
77869;BME280;67231;59.144;37.934;2023-08-01T04:20:53;99626.41;;;19.45;71.00
77869;BME280;67231;59.144;37.934;2023-08-01T04:23:19;99632.13;;;19.55;71.08
77869;BME280;67231;59.144;37.934;2023-08-01T04:25:45;99627.66;;;19.68;70.82
77869;BME280;67231;59.144;37.934;2023-08-01T04:28:12;99632.34;;;19.79;70.78
77869;BME280;67231;59.144;37.934;2023-08-01T04:30:38;99623.31;;;19.92;70.35
77869;BME280;67231;59.144;37.934;2023-08-01T04:33:04;99640.16;;;20.06;69.70
77869;BME280;67231;59.144;37.934;2023-08-01T04:35:31;99633.44;;;20.15;69.50
77869;BME280;67231;59.144;37.934;2023-08-01T04:37:57;99641.22;;;20.23;69.36
77869;BME280;67231;59.144;37.934;2023-08-01T04:40:36;99634.03;;;20.35;69.15
77869;BME280;67231;59.144;37.934;2023-08-01T04:43:03;99636.78;;;20.47;68.65
77869;BME280;67231;59.144;37.934;2023-08-01T04:45:31;99644.88;;;20.66;67.94
77869;BME280;67231;59.144;37.934;2023-08-01T04:47:58;99645.72;;;20.78;67.47
77869;BME280;67231;59.144;37.934;2023-08-01T04:50:24;99639.00;;;20.99;67.43
77869;BME280;67231;59.144;37.934;2023-08-01T04:52:50;99652.44;;;23.34;62.19
77869;BME280;67231;59.144;37.934;2023-08-01T04:55:17;99653.00;;;26.00;56.35
77869;BME280;67231;59.144;37.934;2023-08-01T04:57:43;99662.69;;;27.64;52.76
77869;BME280;67231;59.144;37.934;2023-08-01T05:00:10;99665.47;;;28.60;51.17
77869;BME280;67231;59.144;37.934;2023-08-01T05:02:36;99666.50;;;29.14;49.75
77869;BME280;67231;59.144;37.934;2023-08-01T05:05:03;99679.34;;;29.53;48.09
77869;BME280;67231;59.144;37.934;2023-08-01T05:07:30;99671.28;;;29.96;47.16
77869;BME280;67231;59.144;37.934;2023-08-01T05:09:57;99673.31;;;30.58;45.88
77869;BME280;67231;59.144;37.934;2023-08-01T05:12:23;99677.34;;;30.84;45.46
77869;BME280;67231;59.144;37.934;2023-08-01T05:14:49;99667.94;;;30.91;44.55
77869;BME280;67231;59.144;37.934;2023-08-01T05:17:16;99680.97;;;31.37;44.06
77869;BME280;67231;59.144;37.934;2023-08-01T05:19:42;99686.66;;;32.20;42.46
77869;BME280;67231;59.144;37.934;2023-08-01T05:22:09;99685.13;;;32.92;41.51
77869;BME280;67231;59.144;37.934;2023-08-01T05:24:35;99683.59;;;33.00;40.45
77869;BME280;67231;59.144;37.934;2023-08-01T05:27:01;99684.63;;;32.90;40.86
77869;BME280;67231;59.144;37.934;2023-08-01T05:29:28;99687.00;;;32.83;40.23
77869;BME280;67231;59.144;37.934;2023-08-01T05:31:54;99687.75;;;33.79;38.66
77869;BME280;67231;59.144;37.934;2023-08-01T05:34:21;99690.75;;;34.00;38.50
77869;BME280;67231;59.144;37.934;2023-08-01T05:36:47;99703.28;;;34.64;37.31
77869;BME280;67231;59.144;37.934;2023-08-01T05:39:13;99699.81;;;35.25;36.88
77869;BME280;67231;59.144;37.934;2023-08-01T05:41:40;99704.28;;;35.64;36.12
77869;BME280;67231;59.144;37.934;2023-08-01T05:44:06;99707.56;;;35.75;36.13
77869;BME280;67231;59.144;37.934;2023-08-01T05:46:33;99712.75;;;35.59;35.92
77869;BME280;67231;59.144;37.934;2023-08-01T05:48:59;99714.84;;;36.57;34.56
77869;BME280;67231;59.144;37.934;2023-08-01T05:51:25;99711.63;;;36.76;33.54
77869;BME280;67231;59.144;37.934;2023-08-01T05:53:52;99706.19;;;37.09;32.74
77869;BME280;67231;59.144;37.934;2023-08-01T05:56:18;99714.81;;;37.62;32.32
77869;BME280;67231;59.144;37.934;2023-08-01T05:58:44;99712.97;;;37.54;33.52
77869;BME280;67231;59.144;37.934;2023-08-01T06:01:11;99714.53;;;37.43;32.96
77869;BME280;67231;59.144;37.934;2023-08-01T06:03:38;99710.75;;;37.81;33.12
77869;BME280;67231;59.144;37.934;2023-08-01T06:06:04;99708.13;;;38.09;32.21
77869;BME280;67231;59.144;37.934;2023-08-01T06:08:30;99710.25;;;38.37;32.15
77869;BME280;67231;59.144;37.934;2023-08-01T06:10:56;99719.56;;;38.44;31.76
77869;BME280;67231;59.144;37.934;2023-08-01T06:13:23;99720.88;;;39.00;31.01
77869;BME280;67231;59.144;37.934;2023-08-01T06:15:49;99725.09;;;39.34;30.52
77869;BME280;67231;59.144;37.934;2023-08-01T06:18:16;99728.13;;;39.45;30.40
77869;BME280;67231;59.144;37.934;2023-08-01T06:20:42;99734.06;;;39.15;30.26
77869;BME280;67231;59.144;37.934;2023-08-01T06:23:08;99729.13;;;38.84;31.55
77869;BME280;67231;59.144;37.934;2023-08-01T06:25:34;99729.63;;;38.74;31.09
77869;BME280;67231;59.144;37.934;2023-08-01T06:28:01;99734.09;;;38.91;30.48
77869;BME280;67231;59.144;37.934;2023-08-01T06:30:27;99737.88;;;38.98;30.27
77869;BME280;67231;59.144;37.934;2023-08-01T06:32:54;99737.28;;;39.46;29.25
77869;BME280;67231;59.144;37.934;2023-08-01T06:35:20;99734.03;;;39.72;29.09
77869;BME280;67231;59.144;37.934;2023-08-01T06:37:47;99732.97;;;39.48;29.64
77869;BME280;67231;59.144;37.934;2023-08-01T06:40:13;99738.94;;;39.63;29.91
77869;BME280;67231;59.144;37.934;2023-08-01T06:42:39;99738.94;;;39.63;29.96
77869;BME280;67231;59.144;37.934;2023-08-01T06:45:07;99740.41;;;39.44;29.57
77869;BME280;67231;59.144;37.934;2023-08-01T06:47:33;99738.97;;;39.79;29.42
77869;BME280;67231;59.144;37.934;2023-08-01T06:49:59;99743.84;;;39.54;29.28
77869;BME280;67231;59.144;37.934;2023-08-01T06:52:25;99745.91;;;39.57;28.84
77869;BME280;67231;59.144;37.934;2023-08-01T06:54:52;99744.25;;;39.68;29.63
77869;BME280;67231;59.144;37.934;2023-08-01T06:57:18;99742.19;;;39.81;29.79
77869;BME280;67231;59.144;37.934;2023-08-01T06:59:44;99741.00;;;39.38;29.87
77869;BME280;67231;59.144;37.934;2023-08-01T07:02:10;99736.44;;;38.76;29.76
77869;BME280;67231;59.144;37.934;2023-08-01T07:04:37;99738.19;;;39.50;29.14
77869;BME280;67231;59.144;37.934;2023-08-01T07:07:04;99745.69;;;39.62;28.51
77869;BME280;67231;59.144;37.934;2023-08-01T07:09:31;99737.84;;;39.96;28.23
77869;BME280;67231;59.144;37.934;2023-08-01T07:11:57;99750.09;;;39.95;28.05
77869;BME280;67231;59.144;37.934;2023-08-01T07:14:23;99737.94;;;39.99;27.91
77869;BME280;67231;59.144;37.934;2023-08-01T07:16:49;99745.53;;;39.86;28.38
77869;BME280;67231;59.144;37.934;2023-08-01T07:19:16;99745.66;;;40.22;28.21
77869;BME280;67231;59.144;37.934;2023-08-01T07:21:45;99742.16;;;40.09;27.91
77869;BME280;67231;59.144;37.934;2023-08-01T07:24:14;99744.22;;;40.12;27.83
77869;BME280;67231;59.144;37.934;2023-08-01T07:26:41;99738.75;;;40.16;27.47
77869;BME280;67231;59.144;37.934;2023-08-01T07:29:07;99740.47;;;39.76;28.54
77869;BME280;67231;59.144;37.934;2023-08-01T07:31:37;99737.94;;;39.27;28.62
77869;BME280;67231;59.144;37.934;2023-08-01T07:34:04;99728.34;;;38.10;29.72
77869;BME280;67231;59.144;37.934;2023-08-01T07:36:30;99728.97;;;37.82;29.61
77869;BME280;67231;59.144;37.934;2023-08-01T07:38:56;99723.97;;;38.46;29.40
77869;BME280;67231;59.144;37.934;2023-08-01T07:41:22;99735.47;;;39.09;27.77
77869;BME280;67231;59.144;37.934;2023-08-01T07:43:49;99732.34;;;39.83;27.29
77869;BME280;67231;59.144;37.934;2023-08-01T07:46:15;99730.59;;;40.23;27.44
77869;BME280;67231;59.144;37.934;2023-08-01T07:48:41;99737.94;;;40.15;26.58
77869;BME280;67231;59.144;37.934;2023-08-01T07:51:07;99734.53;;;40.06;26.73
77869;BME280;67231;59.144;37.934;2023-08-01T07:53:34;99728.97;;;40.22;27.18
77869;BME280;67231;59.144;37.934;2023-08-01T07:56:00;99735.56;;;39.69;26.37
77869;BME280;67231;59.144;37.934;2023-08-01T07:58:29;99734.59;;;39.49;27.21
77869;BME280;67231;59.144;37.934;2023-08-01T08:00:55;99728.38;;;39.12;28.17
77869;BME280;67231;59.144;37.934;2023-08-01T08:03:21;99734.50;;;39.74;27.00
77869;BME280;67231;59.144;37.934;2023-08-01T08:05:49;99723.50;;;40.41;27.20
77869;BME280;67231;59.144;37.934;2023-08-01T08:08:15;99728.69;;;40.43;27.11
77869;BME280;67231;59.144;37.934;2023-08-01T08:10:42;99730.31;;;40.44;26.59
77869;BME280;67231;59.144;37.934;2023-08-01T08:13:08;99720.41;;;40.63;26.52
77869;BME280;67231;59.144;37.934;2023-08-01T08:15:34;99726.47;;;40.01;27.00
77869;BME280;67231;59.144;37.934;2023-08-01T08:18:02;99727.41;;;39.61;27.90
77869;BME280;67231;59.144;37.934;2023-08-01T08:20:40;99733.25;;;39.43;27.89
77869;BME280;67231;59.144;37.934;2023-08-01T08:23:06;99736.72;;;39.53;27.71
77869;BME280;67231;59.144;37.934;2023-08-01T08:25:33;99741.09;;;39.98;27.09
77869;BME280;67231;59.144;37.934;2023-08-01T08:27:59;99732.63;;;39.78;27.48
77869;BME280;67231;59.144;37.934;2023-08-01T08:30:25;99729.91;;;39.66;27.27
77869;BME280;67231;59.144;37.934;2023-08-01T08:32:52;99740.13;;;39.33;27.51
77869;BME280;67231;59.144;37.934;2023-08-01T08:35:18;99746.88;;;38.67;27.61
77869;BME280;67231;59.144;37.934;2023-08-01T08:37:44;99734.16;;;38.41;27.88
77869;BME280;67231;59.144;37.934;2023-08-01T08:40:12;99730.16;;;38.05;28.50
77869;BME280;67231;59.144;37.934;2023-08-01T08:42:39;99721.44;;;37.36;29.13
77869;BME280;67231;59.144;37.934;2023-08-01T08:45:06;99725.72;;;35.59;31.55
77869;BME280;67231;59.144;37.934;2023-08-01T08:47:36;99718.16;;;34.45;34.20
77869;BME280;67231;59.144;37.934;2023-08-01T08:50:04;99708.59;;;33.49;35.57
77869;BME280;67231;59.144;37.934;2023-08-01T08:52:31;99715.13;;;32.38;37.50
77869;BME280;67231;59.144;37.934;2023-08-01T08:54:58;99720.13;;;31.89;38.29
77869;BME280;67231;59.144;37.934;2023-08-01T08:57:24;99712.78;;;31.71;37.86
77869;BME280;67231;59.144;37.934;2023-08-01T08:59:51;99718.59;;;31.50;37.51
77869;BME280;67231;59.144;37.934;2023-08-01T09:02:19;99713.59;;;31.19;38.64
77869;BME280;67231;59.144;37.934;2023-08-01T09:04:46;99709.94;;;30.86;39.11
77869;BME280;67231;59.144;37.934;2023-08-01T09:07:15;99710.22;;;30.41;39.67
77869;BME280;67231;59.144;37.934;2023-08-01T09:09:44;99712.66;;;30.19;40.23
77869;BME280;67231;59.144;37.934;2023-08-01T09:12:10;99706.53;;;30.27;39.90
77869;BME280;67231;59.144;37.934;2023-08-01T09:14:38;99708.91;;;30.09;39.79
77869;BME280;67231;59.144;37.934;2023-08-01T09:17:06;99713.63;;;29.74;40.23
77869;BME280;67231;59.144;37.934;2023-08-01T09:19:33;99705.53;;;29.59;41.32
77869;BME280;67231;59.144;37.934;2023-08-01T09:22:00;99706.78;;;29.42;41.76
77869;BME280;67231;59.144;37.934;2023-08-01T09:24:27;99690.38;;;29.42;41.55
77869;BME280;67231;59.144;37.934;2023-08-01T09:27:02;99702.03;;;29.14;42.18
77869;BME280;67231;59.144;37.934;2023-08-01T09:29:31;99697.88;;;28.72;42.96
77869;BME280;67231;59.144;37.934;2023-08-01T09:32:00;99694.72;;;28.99;43.66
77869;BME280;67231;59.144;37.934;2023-08-01T09:34:27;99686.16;;;29.21;43.19
77869;BME280;67231;59.144;37.934;2023-08-01T09:36:59;99685.06;;;29.22;42.43
77869;BME280;67231;59.144;37.934;2023-08-01T09:39:26;99692.00;;;29.43;42.36
77869;BME280;67231;59.144;37.934;2023-08-01T09:42:00;99683.81;;;29.73;41.54
77869;BME280;67231;59.144;37.934;2023-08-01T09:44:29;99693.75;;;29.93;41.29
77869;BME280;67231;59.144;37.934;2023-08-01T09:47:00;99691.84;;;30.18;41.67
77869;BME280;67231;59.144;37.934;2023-08-01T09:49:28;99677.16;;;30.38;40.83
77869;BME280;67231;59.144;37.934;2023-08-01T09:51:54;99697.16;;;30.33;40.78
77869;BME280;67231;59.144;37.934;2023-08-01T09:54:21;99686.56;;;30.26;40.29
77869;BME280;67231;59.144;37.934;2023-08-01T09:56:49;99698.44;;;30.17;40.55
77869;BME280;67231;59.144;37.934;2023-08-01T09:59:26;99691.44;;;29.81;41.78
77869;BME280;67231;59.144;37.934;2023-08-01T10:01:54;99702.19;;;29.67;41.75
77869;BME280;67231;59.144;37.934;2023-08-01T10:04:27;99691.28;;;29.62;42.32
77869;BME280;67231;59.144;37.934;2023-08-01T10:06:58;99689.97;;;29.15;42.65
77869;BME280;67231;59.144;37.934;2023-08-01T10:09:26;99698.78;;;28.51;43.14
77869;BME280;67231;59.144;37.934;2023-08-01T10:11:56;99693.75;;;28.04;43.79
77869;BME280;67231;59.144;37.934;2023-08-01T10:14:23;99695.91;;;28.12;44.01
77869;BME280;67231;59.144;37.934;2023-08-01T10:16:51;99701.38;;;28.07;43.44
77869;BME280;67231;59.144;37.934;2023-08-01T10:19:19;99678.78;;;27.70;44.33
77869;BME280;67231;59.144;37.934;2023-08-01T10:21:47;99685.84;;;27.82;44.37
77869;BME280;67231;59.144;37.934;2023-08-01T10:24:15;99687.44;;;28.19;43.97
77869;BME280;67231;59.144;37.934;2023-08-01T10:26:45;99681.88;;;28.44;44.06
77869;BME280;67231;59.144;37.934;2023-08-01T10:29:12;99699.09;;;28.45;43.85
77869;BME280;67231;59.144;37.934;2023-08-01T10:31:39;99683.59;;;28.30;43.32
77869;BME280;67231;59.144;37.934;2023-08-01T10:34:12;99690.69;;;28.26;42.94
77869;BME280;67231;59.144;37.934;2023-08-01T10:36:39;99680.06;;;28.19;42.92
77869;BME280;67231;59.144;37.934;2023-08-01T10:39:05;99692.63;;;28.25;43.84
77869;BME280;67231;59.144;37.934;2023-08-01T10:41:34;99681.69;;;28.20;42.99
77869;BME280;67231;59.144;37.934;2023-08-01T10:44:05;99676.78;;;28.22;43.15
77869;BME280;67231;59.144;37.934;2023-08-01T10:46:57;99683.09;;;28.18;43.67
77869;BME280;67231;59.144;37.934;2023-08-01T10:49:41;99678.13;;;28.35;44.29
77869;BME280;67231;59.144;37.934;2023-08-01T10:52:22;99690.13;;;28.29;44.25
77869;BME280;67231;59.144;37.934;2023-08-01T10:57:23;99683.41;;;27.95;44.57
77869;BME280;67231;59.144;37.934;2023-08-01T10:59:50;99679.03;;;27.84;44.38
77869;BME280;67231;59.144;37.934;2023-08-01T11:02:21;99678.50;;;27.77;44.58
77869;BME280;67231;59.144;37.934;2023-08-01T11:05:07;99681.25;;;27.61;45.34
77869;BME280;67231;59.144;37.934;2023-08-01T11:07:34;99673.63;;;27.53;45.90
77869;BME280;67231;59.144;37.934;2023-08-01T11:10:04;99683.41;;;27.54;46.13
77869;BME280;67231;59.144;37.934;2023-08-01T11:12:39;99672.25;;;27.46;45.94
77869;BME280;67231;59.144;37.934;2023-08-01T11:15:07;99664.63;;;27.48;45.71
77869;BME280;67231;59.144;37.934;2023-08-01T11:17:36;99672.53;;;27.59;46.08
77869;BME280;67231;59.144;37.934;2023-08-01T11:20:04;99669.78;;;27.65;45.72
77869;BME280;67231;59.144;37.934;2023-08-01T11:22:31;99673.88;;;27.67;45.65
77869;BME280;67231;59.144;37.934;2023-08-01T11:24:58;99679.34;;;27.52;46.43
77869;BME280;67231;59.144;37.934;2023-08-01T11:27:26;99684.50;;;27.33;46.41
77869;BME280;67231;59.144;37.934;2023-08-01T11:29:53;99669.75;;;27.23;46.86
77869;BME280;67231;59.144;37.934;2023-08-01T11:32:21;99671.41;;;27.24;46.83
77869;BME280;67231;59.144;37.934;2023-08-01T11:34:47;99682.31;;;27.19;47.30
77869;BME280;67231;59.144;37.934;2023-08-01T11:37:18;99674.91;;;27.04;47.28
77869;BME280;67231;59.144;37.934;2023-08-01T11:39:46;99673.25;;;26.88;47.27
77869;BME280;67231;59.144;37.934;2023-08-01T11:42:15;99671.88;;;26.85;47.09
77869;BME280;67231;59.144;37.934;2023-08-01T11:44:43;99666.16;;;26.77;47.03
77869;BME280;67231;59.144;37.934;2023-08-01T11:47:14;99676.22;;;26.71;47.30
77869;BME280;67231;59.144;37.934;2023-08-01T11:49:49;99669.63;;;26.62;47.73
77869;BME280;67231;59.144;37.934;2023-08-01T11:52:26;99665.78;;;26.52;48.32
77869;BME280;67231;59.144;37.934;2023-08-01T11:54:53;99687.53;;;26.52;48.32
77869;BME280;67231;59.144;37.934;2023-08-01T11:57:23;99677.19;;;26.49;47.93
77869;BME280;67231;59.144;37.934;2023-08-01T11:59:51;99669.84;;;26.50;48.02
77869;BME280;67231;59.144;37.934;2023-08-01T12:04:49;99664.75;;;26.69;47.55
77869;BME280;67231;59.144;37.934;2023-08-01T12:07:15;99673.50;;;26.71;47.84
77869;BME280;67231;59.144;37.934;2023-08-01T12:09:43;99682.75;;;26.70;48.03
77869;BME280;67231;59.144;37.934;2023-08-01T12:12:10;99673.50;;;26.76;48.86
77869;BME280;67231;59.144;37.934;2023-08-01T12:14:40;99678.97;;;26.81;48.29
77869;BME280;67231;59.144;37.934;2023-08-01T12:17:07;99672.41;;;26.77;47.19
77869;BME280;67231;59.144;37.934;2023-08-01T12:19:33;99670.75;;;26.66;47.95
77869;BME280;67231;59.144;37.934;2023-08-01T12:22:02;99670.97;;;26.59;47.46
77869;BME280;67231;59.144;37.934;2023-08-01T12:24:28;99668.28;;;26.64;47.80
77869;BME280;67231;59.144;37.934;2023-08-01T12:26:54;99671.00;;;26.64;47.46
77869;BME280;67231;59.144;37.934;2023-08-01T12:29:21;99669.66;;;26.67;48.45
77869;BME280;67231;59.144;37.934;2023-08-01T12:31:48;99667.75;;;26.67;48.51
77869;BME280;67231;59.144;37.934;2023-08-01T12:34:15;99663.91;;;26.58;47.49
77869;BME280;67231;59.144;37.934;2023-08-01T12:36:41;99661.66;;;26.50;47.35
77869;BME280;67231;59.144;37.934;2023-08-01T12:39:07;99665.78;;;26.52;47.19
77869;BME280;67231;59.144;37.934;2023-08-01T12:41:37;99654.63;;;26.59;47.11
77869;BME280;67231;59.144;37.934;2023-08-01T12:44:04;99665.28;;;26.66;47.79
77869;BME280;67231;59.144;37.934;2023-08-01T12:46:31;99659.03;;;26.65;47.29
77869;BME280;67231;59.144;37.934;2023-08-01T12:48:57;99670.16;;;26.59;47.98
77869;BME280;67231;59.144;37.934;2023-08-01T12:51:23;99661.97;;;26.53;47.80
77869;BME280;67231;59.144;37.934;2023-08-01T12:53:50;99662.75;;;26.44;47.29
77869;BME280;67231;59.144;37.934;2023-08-01T12:56:16;99675.50;;;26.38;47.38